Time;durP1;ratioP1;P1;durP2;ratioP2;P2;SDS_P1;SDS_P2;PMS_P1;PMS_P2;Temp;Humidity;BMP_temperature;BMP_pressure;BME280_temperature;BME280_humidity;BME280_pressure;Samples;Min_cycle;Max_cycle;Signal;HPM_P1;HPM_P2
2022/04/11 00:02:19;;;;;;;3.38;1.48;;;19.50;45.60;;;;;;6197363;28;20033;-66
2022/04/11 00:05:19;;;;;;;1.50;0.90;;;19.50;45.60;;;;;;6197213;28;20022;-66
2022/04/11 00:08:20;;;;;;;1.58;1.20;;;19.50;45.60;;;;;;6197186;28;20038;-66
2022/04/11 00:11:21;;;;;;;1.65;1.27;;;19.50;45.60;;;;;;6197223;28;20032;-66
2022/04/11 00:14:21;;;;;;;1.30;1.00;;;19.50;45.60;;;;;;6196846;28;20496;-66
2022/04/11 00:17:22;;;;;;;1.40;0.82;;;19.50;45.60;;;;;;6196635;28;20084;-66
2022/04/11 00:20:22;;;;;;;2.05;1.27;;;19.50;45.60;;;;;;6197075;28;20081;-66
2022/04/11 00:23:23;;;;;;;1.83;1.13;;;19.50;45.60;;;;;;6196876;28;20109;-66
2022/04/11 00:26:23;;;;;;;1.58;1.02;;;19.50;45.60;;;;;;6196900;28;20501;-66
2022/04/11 00:29:24;;;;;;;1.50;1.00;;;19.50;45.60;;;;;;6196423;28;20050;-66
2022/04/11 00:32:25;;;;;;;2.90;1.20;;;19.50;45.60;;;;;;6196887;28;20054;-66
2022/04/11 00:35:26;;;;;;;1.75;1.20;;;19.50;45.60;;;;;;6196314;28;20112;-66
2022/04/11 00:38:26;;;;;;;0.95;0.77;;;19.50;45.60;;;;;;6196575;28;20038;-66
2022/04/11 00:41:27;;;;;;;2.08;0.95;;;19.50;45.60;;;;;;6196064;28;20408;-67
2022/04/11 00:44:27;;;;;;;1.50;0.85;;;19.50;45.60;;;;;;6195963;28;20026;-66
2022/04/11 00:47:28;;;;;;;1.80;1.27;;;19.40;45.60;;;;;;6196151;28;20063;-66
2022/04/11 00:50:29;;;;;;;1.15;0.82;;;19.50;45.60;;;;;;6196150;28;20022;-66
2022/04/11 00:53:31;;;;;;;1.42;0.90;;;19.40;45.50;;;;;;6196536;28;20062;-66
2022/04/11 00:56:35;;;;;;;1.10;0.90;;;19.40;45.60;;;;;;6196047;28;20026;-66
2022/04/11 00:59:36;;;;;;;1.10;0.95;;;19.40;45.60;;;;;;6196103;28;20081;-66
2022/04/11 01:02:36;;;;;;;1.25;0.82;;;19.40;45.50;;;;;;6196032;28;20431;-66
2022/04/11 01:05:37;;;;;;;1.73;1.10;;;19.50;45.60;;;;;;6196069;28;20139;-66
2022/04/11 01:08:38;;;;;;;1.67;0.85;;;19.50;45.60;;;;;;6196413;28;20023;-66
2022/04/11 01:11:39;;;;;;;1.17;0.90;;;19.50;45.50;;;;;;6195844;28;20102;-66
2022/04/11 01:14:39;;;;;;;1.05;0.90;;;19.40;45.60;;;;;;6195533;28;20022;-66
2022/04/11 01:17:41;;;;;;;1.75;1.00;;;19.40;45.50;;;;;;6195854;28;20030;-66
2022/04/11 01:20:42;;;;;;;1.40;1.00;;;19.40;45.40;;;;;;6195882;28;20371;-66
2022/04/11 01:23:42;;;;;;;0.95;0.70;;;19.40;45.50;;;;;;6195145;28;20064;-66
2022/04/11 01:26:44;;;;;;;1.45;1.02;;;19.40;45.50;;;;;;6195237;28;20105;-66
2022/04/11 01:29:44;;;;;;;1.40;1.10;;;19.40;45.50;;;;;;6195032;28;20062;-66
2022/04/11 01:32:45;;;;;;;1.50;1.00;;;19.40;45.50;;;;;;6195585;28;20479;-66
2022/04/11 01:35:46;;;;;;;1.73;1.00;;;19.50;45.70;;;;;;6194701;28;20347;-66
2022/04/11 01:38:46;;;;;;;1.23;0.90;;;19.40;45.50;;;;;;6195015;28;20121;-66
2022/04/11 01:41:48;;;;;;;1.58;1.00;;;19.40;45.50;;;;;;6195764;28;20018;-66
2022/04/11 01:44:48;;;;;;;1.50;0.90;;;19.50;45.60;;;;;;6194888;28;20430;-66
2022/04/11 01:47:49;;;;;;;1.45;1.00;;;19.40;45.50;;;;;;6194773;28;20351;-66
2022/04/11 01:50:49;;;;;;;2.22;1.13;;;19.50;45.70;;;;;;6194135;28;20030;-66
2022/04/11 01:53:50;;;;;;;1.30;1.00;;;19.40;45.50;;;;;;6194588;28;20034;-66
2022/04/11 01:56:50;;;;;;;2.40;1.20;;;19.40;45.60;;;;;;6194537;28;20053;-66
2022/04/11 01:59:51;;;;;;;1.75;1.17;;;19.40;45.50;;;;;;6194517;28;20503;-66
2022/04/11 02:02:51;;;;;;;1.55;1.05;;;19.40;45.50;;;;;;6194498;28;20037;-66
2022/04/11 02:05:53;;;;;;;1.48;1.00;;;19.40;45.50;;;;;;6194252;28;20173;-66
2022/04/11 02:08:54;;;;;;;2.33;1.02;;;19.40;45.60;;;;;;6194952;28;20026;-66
2022/04/11 02:11:54;;;;;;;2.08;0.85;;;19.40;45.60;;;;;;6194628;28;20064;-66
2022/04/11 02:14:54;;;;;;;1.35;0.95;;;19.50;45.80;;;;;;6194394;28;20022;-66
2022/04/11 02:17:55;;;;;;;1.30;0.90;;;19.50;45.60;;;;;;6194007;28;20035;-66
2022/04/11 02:20:56;;;;;;;1.20;0.90;;;19.40;45.50;;;;;;6193111;28;20061;-66
2022/04/11 02:23:56;;;;;;;1.25;0.85;;;19.40;45.60;;;;;;6194235;28;20033;-66
2022/04/11 02:26:57;;;;;;;2.47;1.38;;;19.40;45.50;;;;;;6194070;28;20026;-66
2022/04/11 02:29:57;;;;;;;1.17;0.88;;;19.40;45.50;;;;;;6193641;28;20074;-66
2022/04/11 02:32:58;;;;;;;1.25;0.90;;;19.40;45.50;;;;;;6194510;28;20011;-66
2022/04/11 02:35:58;;;;;;;0.93;0.68;;;19.50;45.70;;;;;;6194068;28;20466;-66
2022/04/11 02:38:59;;;;;;;1.73;0.93;;;19.40;45.60;;;;;;6194111;28;20035;-66
2022/04/11 02:41:59;;;;;;;2.28;1.17;;;19.40;45.50;;;;;;6194212;28;20436;-66
2022/04/11 02:45:00;;;;;;;1.60;1.00;;;19.40;45.90;;;;;;6193728;28;20220;-66
2022/04/11 02:48:00;;;;;;;1.45;1.00;;;19.40;45.60;;;;;;6194035;28;20026;-66
2022/04/11 02:51:01;;;;;;;0.80;0.70;;;19.40;45.60;;;;;;6193942;28;20065;-66
2022/04/11 02:54:07;;;;;;;1.00;0.80;;;19.40;45.60;;;;;;6194138;28;20126;-66
2022/04/11 02:57:07;;;;;;;1.08;0.80;;;19.40;45.50;;;;;;6192646;28;20030;-66
2022/04/11 03:00:12;;;;;;;1.52;0.95;;;19.40;45.60;;;;;;6193262;28;20049;-66
2022/04/11 03:03:12;;;;;;;0.93;0.77;;;19.40;45.50;;;;;;6196129;28;20421;-66
2022/04/11 03:06:13;;;;;;;1.00;0.80;;;19.40;45.50;;;;;;6198271;28;20288;-66
2022/04/11 03:09:13;;;;;;;1.77;1.13;;;19.40;45.50;;;;;;6197592;28;20030;-66
2022/04/11 03:12:14;;;;;;;1.25;0.85;;;19.40;45.70;;;;;;6198467;28;20084;-66
2022/04/11 03:15:14;;;;;;;0.85;0.68;;;19.40;45.50;;;;;;6198261;28;20026;-66
2022/04/11 03:18:15;;;;;;;1.17;0.85;;;19.40;45.50;;;;;;6198267;28;20464;-66
2022/04/11 03:21:15;;;;;;;1.10;0.82;;;19.40;45.50;;;;;;6198788;28;20109;-66
2022/04/11 03:24:16;;;;;;;1.50;0.98;;;19.40;45.50;;;;;;6198380;28;20019;-66
2022/04/11 03:27:16;;;;;;;1.00;0.80;;;19.40;45.30;;;;;;6198149;28;20081;-66
2022/04/11 03:30:17;;;;;;;1.40;0.90;;;19.40;45.50;;;;;;6197780;28;20065;-66
2022/04/11 03:33:18;;;;;;;1.42;1.02;;;19.40;45.60;;;;;;6197958;28;20082;-66
2022/04/11 03:36:18;;;;;;;1.38;0.90;;;19.40;45.80;;;;;;6197645;28;20034;-66
2022/04/11 03:39:19;;;;;;;1.20;0.90;;;19.40;45.60;;;;;;6198198;28;20134;-66
2022/04/11 03:42:19;;;;;;;1.30;0.90;;;19.40;45.60;;;;;;6197724;28;20026;-66
2022/04/11 03:45:20;;;;;;;1.30;0.90;;;19.40;45.50;;;;;;6197562;28;20536;-66
2022/04/11 03:48:20;;;;;;;1.10;0.90;;;19.40;45.60;;;;;;6197646;28;20031;-66
2022/04/11 03:51:21;;;;;;;1.30;0.77;;;19.40;45.60;;;;;;6197565;28;20466;-66
2022/04/11 03:54:22;;;;;;;1.33;0.80;;;19.40;45.60;;;;;;6197597;28;20022;-66
2022/04/11 03:57:22;;;;;;;1.35;0.98;;;19.40;45.60;;;;;;6197188;28;20037;-66
2022/04/11 04:00:23;;;;;;;1.13;0.90;;;19.40;45.60;;;;;;6198258;28;20069;-66
2022/04/11 04:03:24;;;;;;;1.55;0.93;;;19.40;45.70;;;;;;6197013;28;20026;-66
2022/04/11 04:06:25;;;;;;;1.98;1.10;;;19.40;45.60;;;;;;6197259;28;20470;-67
2022/04/11 04:09:25;;;;;;;1.30;0.82;;;19.40;45.50;;;;;;6197275;28;20026;-66
2022/04/11 04:12:26;;;;;;;1.35;0.90;;;19.40;45.50;;;;;;6197006;28;20034;-66
2022/04/11 04:15:26;;;;;;;0.88;0.77;;;19.40;45.40;;;;;;6196167;28;20022;-66
2022/04/11 04:18:27;;;;;;;1.70;1.10;;;19.40;45.60;;;;;;6197252;28;20053;-66
2022/04/11 04:21:27;;;;;;;1.15;0.93;;;19.40;45.60;;;;;;6196908;28;20027;-66
2022/04/11 04:24:28;;;;;;;0.75;0.68;;;19.40;45.60;;;;;;6196798;28;20031;-66
2022/04/11 04:27:29;;;;;;;1.95;0.80;;;19.40;45.70;;;;;;6196914;28;20019;-66
2022/04/11 04:30:30;;;;;;;0.98;0.85;;;19.40;45.50;;;;;;6196439;28;20058;-66
2022/04/11 04:33:31;;;;;;;2.28;1.10;;;19.40;45.60;;;;;;6196925;28;20037;-66
2022/04/11 04:36:31;;;;;;;1.90;0.95;;;19.40;45.80;;;;;;6196591;28;20060;-66
2022/04/11 04:39:32;;;;;;;1.73;0.80;;;19.40;45.80;;;;;;6196543;28;20026;-66
2022/04/11 04:42:32;;;;;;;0.98;0.80;;;19.40;45.80;;;;;;6197305;28;20069;-66
2022/04/11 04:45:33;;;;;;;1.40;0.95;;;19.40;45.70;;;;;;6194795;28;20481;-66
2022/04/11 04:48:33;;;;;;;1.02;0.85;;;19.40;45.80;;;;;;6196118;28;20030;-66
2022/04/11 04:51:34;;;;;;;1.25;0.82;;;19.40;45.70;;;;;;6196143;28;20046;-66
2022/04/11 04:54:35;;;;;;;0.98;0.75;;;19.40;45.70;;;;;;6196314;28;20278;-67
2022/04/11 04:57:35;;;;;;;3.17;0.80;;;19.40;45.60;;;;;;6195909;28;20037;-66
2022/04/11 05:00:39;;;;;;;0.90;0.80;;;19.40;45.60;;;;;;6196001;28;20030;-66
2022/04/11 05:03:39;;;;;;;1.00;0.90;;;19.40;45.40;;;;;;6172260;28;20145;-66
2022/04/11 05:06:40;;;;;;;1.55;0.90;;;19.40;45.60;;;;;;6171736;28;20069;-66
2022/04/11 05:09:41;;;;;;;1.88;1.17;;;19.40;45.60;;;;;;6171960;28;20098;-66
2022/04/11 05:12:45;;;;;;;1.67;0.85;;;19.40;45.70;;;;;;6171685;28;20098;-66
2022/04/11 05:15:46;;;;;;;1.70;0.95;;;19.40;45.60;;;;;;6171403;28;20186;-66
2022/04/11 05:18:47;;;;;;;0.80;0.80;;;19.40;45.60;;;;;;6171902;28;20034;-66
2022/04/11 05:21:47;;;;;;;1.65;0.70;;;19.40;45.40;;;;;;6171203;28;20443;-66
2022/04/11 05:24:48;;;;;;;0.85;0.63;;;19.40;45.60;;;;;;6171194;28;20446;-66
2022/04/11 05:27:48;;;;;;;1.83;1.08;;;19.40;45.70;;;;;;6171352;28;20062;-66
2022/04/11 05:30:49;;;;;;;1.33;0.80;;;19.40;45.60;;;;;;6185895;28;20517;-66
2022/04/11 05:33:50;;;;;;;1.00;0.70;;;19.40;45.60;;;;;;6194970;28;20138;-66
2022/04/11 05:36:50;;;;;;;1.20;0.80;;;19.40;45.60;;;;;;6195344;28;20097;-66
2022/04/11 05:39:51;;;;;;;1.00;0.70;;;19.40;45.70;;;;;;6195039;28;20038;-66
2022/04/11 05:42:51;;;;;;;1.35;0.90;;;19.40;45.70;;;;;;6194713;28;20023;-65
2022/04/11 05:45:52;;;;;;;2.17;1.00;;;19.40;45.70;;;;;;6195310;28;20034;-66
2022/04/11 05:48:52;;;;;;;1.38;0.73;;;19.40;45.50;;;;;;6194678;28;20485;-66
2022/04/11 05:51:53;;;;;;;1.60;1.10;;;19.40;45.60;;;;;;6194564;28;20349;-66
2022/04/11 05:54:53;;;;;;;1.45;0.80;;;19.40;45.50;;;;;;6194257;28;20512;-67
2022/04/11 05:57:54;;;;;;;1.02;0.77;;;19.40;45.50;;;;;;6194828;28;20117;-66
2022/04/11 06:00:56;;;;;;;1.35;0.98;;;19.40;45.40;;;;;;6186142;28;20039;-66
2022/04/11 06:03:56;;;;;;;1.35;0.75;;;19.40;45.50;;;;;;6196564;28;20030;-66
2022/04/11 06:06:57;;;;;;;0.80;0.60;;;19.40;45.50;;;;;;6182685;28;20066;-66
2022/04/11 06:09:59;;;;;;;1.27;0.80;;;19.40;45.50;;;;;;6186184;28;20106;-66
2022/04/11 06:13:00;;;;;;;1.65;0.80;;;19.40;45.60;;;;;;6198257;28;20160;-66
2022/04/11 06:16:01;;;;;;;1.50;1.02;;;19.40;45.50;;;;;;6195046;28;20028;-66
2022/04/11 06:19:02;;;;;;;1.75;0.93;;;19.40;45.50;;;;;;6194980;28;20441;-66
2022/04/11 06:22:03;;;;;;;1.08;0.85;;;19.40;45.60;;;;;;6194964;28;20030;-66
2022/04/11 06:25:05;;;;;;;1.70;1.00;;;19.50;45.70;;;;;;6194997;28;20025;-66
2022/04/11 06:28:06;;;;;;;2.42;0.80;;;19.50;45.60;;;;;;6195256;28;20029;-66
2022/04/11 06:31:06;;;;;;;2.45;0.65;;;19.50;45.60;;;;;;6194390;28;20517;-66
2022/04/11 06:34:06;;;;;;;2.22;1.10;;;19.50;45.60;;;;;;6187178;28;20020;-66
2022/04/11 06:37:07;;;;;;;1.25;0.73;;;19.50;45.60;;;;;;6171836;28;20038;-66
2022/04/11 06:40:08;;;;;;;1.27;0.70;;;19.50;45.60;;;;;;6184278;28;20066;-66
2022/04/11 06:43:09;;;;;;;12.50;1.45;;;19.50;45.60;;;;;;6208602;28;20066;-66
2022/04/11 06:46:09;;;;;;;35.78;2.35;;;19.50;46.40;;;;;;6195319;28;20030;-66
2022/04/11 06:49:10;;;;;;;9.52;1.08;;;19.60;46.00;;;;;;6194845;28;20402;-66
2022/04/11 06:52:10;;;;;;;2.67;1.08;;;19.60;45.20;;;;;;6194280;28;20113;-66
2022/04/11 06:55:11;;;;;;;9.98;1.00;;;19.70;45.00;;;;;;6194425;28;20031;-66
2022/04/11 06:58:11;;;;;;;2.03;1.00;;;19.70;44.90;;;;;;6194579;28;20355;-66
2022/04/11 07:01:12;;;;;;;1.85;0.82;;;19.70;44.80;;;;;;6195020;28;20037;-66
2022/04/11 07:04:12;;;;;;;11.73;1.27;;;19.70;44.70;;;;;;6202975;28;20030;-66
2022/04/11 07:07:13;;;;;;;9.98;0.93;;;19.70;45.00;;;;;;6219995;28;20385;-66
2022/04/11 07:10:14;;;;;;;3.33;0.88;;;19.70;45.00;;;;;;6218297;28;20025;-66
2022/04/11 07:13:14;;;;;;;3.38;0.98;;;19.70;45.00;;;;;;6207176;28;20040;-66
2022/04/11 07:16:15;;;;;;;5.28;1.20;;;19.70;45.00;;;;;;6195613;28;20041;-66
2022/04/11 07:19:15;;;;;;;5.88;0.90;;;19.70;45.10;;;;;;6194988;28;20041;-66
2022/04/11 07:22:21;;;;;;;2.72;0.90;;;19.70;45.10;;;;;;6194647;28;20034;-66
2022/04/11 07:25:24;;;;;;;8.48;1.30;;;19.70;45.20;;;;;;6195210;28;20041;-66
2022/04/11 07:28:25;;;;;;;2.95;1.00;;;19.70;45.20;;;;;;6195296;28;20497;-66
2022/04/11 07:31:27;;;;;;;7.30;1.13;;;19.70;45.30;;;;;;6194970;28;20503;-66
2022/04/11 07:34:27;;;;;;;5.38;1.30;;;19.70;45.20;;;;;;6195070;28;20030;-66
2022/04/11 07:37:28;;;;;;;6.10;0.70;;;19.70;45.20;;;;;;6194617;28;20409;-66
2022/04/11 07:40:29;;;;;;;4.07;0.93;;;19.70;45.30;;;;;;6194981;28;20106;-66
2022/04/11 07:43:29;;;;;;;1.27;0.85;;;19.70;45.30;;;;;;6194868;28;20034;-66
2022/04/11 07:46:30;;;;;;;2.63;1.00;;;19.70;45.30;;;;;;6195293;28;20030;-66
2022/04/11 07:49:30;;;;;;;3.28;1.05;;;19.70;45.30;;;;;;6195346;28;20035;-66
2022/04/11 07:52:31;;;;;;;1.70;0.80;;;19.70;45.40;;;;;;6199902;28;20105;-66
2022/04/11 07:55:33;;;;;;;3.50;1.30;;;19.70;45.30;;;;;;6199401;28;20044;-66
2022/04/11 07:58:34;;;;;;;2.75;1.30;;;19.70;44.90;;;;;;6199305;28;20042;-66
2022/04/11 08:01:34;;;;;;;5.70;1.33;;;19.70;44.90;;;;;;6199155;28;20520;-66
2022/04/11 08:04:35;;;;;;;1.98;0.80;;;19.70;45.00;;;;;;6198053;28;20038;-66
2022/04/11 08:07:36;;;;;;;1.75;0.90;;;19.70;45.00;;;;;;6198850;28;20034;-66
2022/04/11 08:10:36;;;;;;;7.50;1.00;;;19.70;45.00;;;;;;6199315;28;20098;-67
2022/04/11 08:13:38;;;;;;;6.03;1.00;;;19.70;45.00;;;;;;6221456;28;20025;-67
2022/04/11 08:16:39;;;;;;;7.50;1.40;;;19.70;45.10;;;;;;6223445;28;20100;-66
2022/04/11 08:19:40;;;;;;;3.90;1.58;;;19.70;45.10;;;;;;6223191;28;20030;-66
2022/04/11 08:22:40;;;;;;;4.13;1.40;;;19.70;45.10;;;;;;6222983;28;20032;-66
2022/04/11 08:25:41;;;;;;;6.15;2.17;;;19.70;45.10;;;;;;6210406;28;20385;-66
2022/04/11 08:28:41;;;;;;;12.27;3.00;;;19.70;45.10;;;;;;6198193;28;20050;-66
2022/04/11 08:31:42;;;;;;;6.82;2.97;;;19.70;45.10;;;;;;6198262;28;20563;-66
2022/04/11 08:34:42;;;;;;;11.32;3.80;;;19.70;45.10;;;;;;6198405;28;20667;-66
2022/04/11 08:37:43;;;;;;;13.43;4.45;;;19.70;45.10;;;;;;6197366;28;20026;-66
2022/04/11 08:40:45;;;;;;;17.48;6.32;;;19.70;45.10;;;;;;6198330;28;20065;-66
2022/04/11 08:43:46;;;;;;;18.42;5.82;;;19.70;45.10;;;;;;6197799;28;20035;-66
2022/04/11 08:46:48;;;;;;;17.77;5.80;;;19.60;44.70;;;;;;6197850;28;20030;-66
2022/04/11 08:49:50;;;;;;;17.30;5.32;;;19.60;43.30;;;;;;6197975;28;20069;-66
2022/04/11 08:52:53;;;;;;;9.57;3.70;;;19.60;42.90;;;;;;6198075;28;20034;-66
2022/04/11 08:55:54;;;;;;;9.70;3.08;;;19.60;42.40;;;;;;6197479;28;20385;-66
2022/04/11 08:58:54;;;;;;;10.60;3.00;;;19.60;42.50;;;;;;6197665;28;20042;-67
2022/04/11 09:01:55;;;;;;;7.07;2.95;;;19.50;42.20;;;;;;6197337;28;20101;-66
2022/04/11 09:04:56;;;;;;;7.32;2.95;;;19.50;42.10;;;;;;6197833;28;20110;-66
2022/04/11 09:07:58;;;;;;;5.40;2.30;;;19.50;40.60;;;;;;6197266;28;20029;-66
2022/04/11 09:10:58;;;;;;;8.25;2.05;;;19.60;40.10;;;;;;6197082;28;20022;-66
2022/04/11 09:14:01;;;;;;;9.50;2.38;;;19.60;40.20;;;;;;6214798;28;20030;-66
2022/04/11 09:17:01;;;;;;;7.72;2.40;;;19.50;40.50;;;;;;6197317;28;20026;-66
2022/04/11 09:20:11;;;;;;;8.18;2.20;;;19.50;40.50;;;;;;6196997;28;20445;-66
2022/04/11 09:23:18;;;;;;;4.22;1.67;;;19.60;39.50;;;;;;6196977;28;20019;-66
2022/04/11 09:26:23;;;;;;;7.82;1.75;;;19.60;39.70;;;;;;6197068;28;20497;-66
2022/04/11 09:29:25;;;;;;;6.65;2.17;;;19.60;40.10;;;;;;6196749;28;20308;-66
2022/04/11 09:32:26;;;;;;;8.60;2.33;;;19.60;40.60;;;;;;6197231;28;20093;-66
2022/04/11 09:35:32;;;;;;;13.07;2.45;;;19.60;41.00;;;;;;6196546;28;20030;-67
2022/04/11 09:38:37;;;;;;;11.15;3.50;;;19.60;41.10;;;;;;6196152;28;20053;-66
2022/04/11 09:41:46;;;;;;;9.60;2.97;;;19.50;40.20;;;;;;6194321;28;20504;-66
2022/04/11 09:44:46;;;;;;;6.90;2.20;;;19.50;39.90;;;;;;6202913;28;20034;-66
2022/04/11 09:48:04;;;;;;;7.90;2.22;;;19.50;39.80;;;;;;6195740;28;20136;-66
2022/04/11 09:51:13;;;;;;;4.80;2.03;;;19.50;39.30;;;;;;6196871;28;20490;-66
2022/04/11 09:54:29;;;;;;;7.45;2.55;;;19.50;39.60;;;;;;6194929;28;20019;-66
2022/04/11 09:57:32;;;;;;;6.35;2.13;;;19.50;39.20;;;;;;6215673;28;20025;-66
2022/04/11 10:00:38;;;;;;;4.57;1.52;;;19.50;39.10;;;;;;6212346;28;20394;-66
2022/04/11 10:03:40;;;;;;;6.55;2.42;;;19.50;38.80;;;;;;6196344;28;20097;-66
2022/04/11 10:06:40;;;;;;;4.03;2.03;;;19.50;38.60;;;;;;6196148;28;20034;-66
2022/04/11 10:09:41;;;;;;;6.30;2.15;;;19.50;38.90;;;;;;6196286;28;20489;-66
2022/04/11 10:12:42;;;;;;;8.73;3.30;;;19.60;39.30;;;;;;6209767;28;20018;-66
2022/04/11 10:15:51;;;;;;;9.98;3.30;;;19.60;39.60;;;;;;6220351;28;20022;-66
2022/04/11 10:18:59;;;;;;;14.55;4.53;;;19.60;40.60;;;;;;6220333;28;20033;-66
2022/04/11 10:22:02;;;;;;;13.70;4.18;;;19.60;40.20;;;;;;6220206;28;20307;-66
2022/04/11 10:25:07;;;;;;;15.13;4.68;;;19.60;40.50;;;;;;6220407;28;20029;-66
2022/04/11 10:28:25;;;;;;;19.75;6.30;;;19.60;40.70;;;;;;6219955;28;20054;-66
2022/04/11 10:31:35;;;;;;;18.05;6.85;;;19.60;40.90;;;;;;6199839;28;20121;-66
2022/04/11 10:35:08;;;;;;;25.92;8.65;;;19.60;41.00;;;;;;6195865;28;20029;-66
2022/04/11 10:38:11;;;;;;;28.27;9.82;;;19.60;41.10;;;;;;6195486;28;20385;-66
2022/04/11 10:41:11;;;;;;;30.88;10.15;;;19.60;41.20;;;;;;6195483;28;20037;-66
2022/04/11 10:44:39;;;;;;;31.50;10.77;;;19.70;41.30;;;;;;6195564;28;20553;-66
2022/04/11 10:47:48;;;;;;;32.08;10.20;;;19.70;41.40;;;;;;6195641;28;20026;-66
2022/04/11 10:50:52;;;;;;;35.83;11.30;;;19.70;41.60;;;;;;6195246;28;20031;-66
2022/04/11 10:54:18;;;;;;;30.90;12.18;;;19.70;41.70;;;;;;6195964;28;20433;-66
2022/04/11 10:57:41;;;;;;;32.80;10.95;;;19.70;41.70;;;;;;6195533;28;20076;-66
2022/04/11 11:00:42;;;;;;;34.63;11.85;;;19.70;41.80;;;;;;6195365;28;20560;-66
2022/04/11 11:03:59;;;;;;;28.60;10.10;;;19.70;42.00;;;;;;6195532;28;20036;-66
2022/04/11 11:07:23;;;;;;;22.15;8.75;;;19.60;42.10;;;;;;6195306;28;20034;-66
2022/04/11 11:10:37;;;;;;;22.98;7.50;;;19.60;41.20;;;;;;6195383;28;20048;-66
2022/04/11 11:13:41;;;;;;;23.52;7.47;;;19.60;39.90;;;;;;6216709;28;20029;-66
2022/04/11 11:16:58;;;;;;;22.08;8.27;;;19.60;40.40;;;;;;6220087;28;20022;-66
2022/04/11 11:20:08;;;;;;;20.05;7.88;;;19.70;40.80;;;;;;6219935;28;20042;-66
2022/04/11 11:23:20;;;;;;;23.23;6.80;;;19.70;41.10;;;;;;6219909;28;20477;-66
2022/04/11 11:26:22;;;;;;;17.00;7.05;;;19.70;41.20;;;;;;6224350;28;20026;-66
2022/04/11 11:29:49;;;;;;;22.55;7.47;;;19.70;41.40;;;;;;6220311;28;20129;-66
2022/04/11 11:32:49;;;;;;;21.15;7.97;;;19.70;41.40;;;;;;6199291;28;20050;-66
2022/04/11 11:35:51;;;;;;;21.15;7.90;;;19.70;41.60;;;;;;6199821;28;20053;-66
2022/04/11 11:38:51;;;;;;;30.65;9.50;;;19.70;41.60;;;;;;6198760;28;20039;-66
2022/04/11 11:41:54;;;;;;;33.28;10.77;;;19.70;41.70;;;;;;6198653;28;20173;-66
2022/04/11 11:44:55;;;;;;;27.70;10.82;;;19.70;41.70;;;;;;6199496;28;20289;-67
2022/04/11 11:47:55;;;;;;;34.28;11.48;;;19.70;41.90;;;;;;6200258;28;20054;-67
2022/04/11 11:50:58;;;;;;;32.20;10.68;;;19.70;42.00;;;;;;6200922;28;20484;-66
2022/04/11 11:53:59;;;;;;;32.20;10.63;;;19.70;42.10;;;;;;6199484;28;20034;-66
2022/04/11 11:56:59;;;;;;;39.92;13.68;;;19.70;42.20;;;;;;6199386;28;20033;-67
2022/04/11 12:00:04;;;;;;;30.52;11.45;;;19.60;42.30;;;;;;6199129;28;20121;-66
2022/04/11 12:06:33;;;;;;;32.95;11.38;;;19.60;42.50;;;;;;6199051;28;20022;-67
2022/04/11 12:09:38;;;;;;;43.58;14.68;;;19.60;42.60;;;;;;6199131;28;20022;-66
2022/04/11 12:12:39;;;;;;;43.00;15.20;;;19.60;43.40;;;;;;6206910;28;20030;-66
2022/04/11 12:15:39;;;;;;;45.50;15.82;;;19.60;42.80;;;;;;6198702;28;20442;-66
2022/04/11 12:18:54;;;;;;;45.95;15.63;;;19.60;42.90;;;;;;6198664;28;20030;-67
2022/04/11 12:22:12;;;;;;;61.65;21.52;;;19.60;43.10;;;;;;6198611;28;20027;-66
2022/04/11 12:25:20;;;;;;;60.83;21.13;;;19.60;42.80;;;;;;6199190;28;20125;-66
2022/04/11 12:28:26;;;;;;;56.72;19.98;;;19.60;43.10;;;;;;6198361;28;20120;-66
2022/04/11 12:31:26;;;;;;;;;;;19.60;43.10;;;;;;6198697;28;20069;-66
2022/04/11 12:34:36;;;;;;;54.47;19.65;;;19.60;43.30;;;;;;6213551;28;19909;-66
2022/04/11 12:37:47;;;;;;;64.65;21.50;;;19.60;43.20;;;;;;6197465;28;20080;-66
2022/04/11 12:40:49;;;;;;;58.95;21.65;;;19.60;43.40;;;;;;6197963;28;20058;-66
2022/04/11 12:44:21;;;;;;;74.22;24.05;;;19.60;43.40;;;;;;6197847;28;20028;-66
2022/04/11 12:47:22;;;;;;;59.08;19.83;;;19.60;43.40;;;;;;6216046;28;20057;-66
2022/04/11 12:50:22;;;;;;;54.25;19.83;;;19.50;43.50;;;;;;6198011;28;20026;-66
2022/04/11 12:53:30;;;;;;;59.35;19.85;;;19.60;43.60;;;;;;6197707;28;20105;-66
2022/04/11 12:56:41;;;;;;;44.22;17.42;;;19.60;43.60;;;;;;6198038;28;20026;-66
2022/04/11 12:59:42;;;;;;;55.15;18.90;;;19.60;43.90;;;;;;6198221;28;20176;-66
2022/04/11 13:02:43;;;;;;;53.22;18.63;;;19.60;43.50;;;;;;6174207;28;20038;-66
2022/04/11 13:05:44;;;;;;;48.80;18.85;;;19.70;43.40;;;;;;6196565;28;20089;-66
2022/04/11 13:08:44;;;;;;;59.80;21.27;;;19.70;43.30;;;;;;6203354;28;20477;-66
2022/04/11 13:11:46;;;;;;;57.15;21.65;;;19.70;43.10;;;;;;6221837;28;20030;-66
2022/04/11 13:14:49;;;;;;;49.60;19.17;;;19.70;43.10;;;;;;6219806;28;20064;-66
2022/04/11 13:21:08;;;;;;;58.05;19.77;;;19.70;42.90;;;;;;6197374;28;20030;-66
2022/04/11 13:24:09;;;;;;;49.00;18.92;;;19.80;43.00;;;;;;6196787;28;20108;-66
2022/04/11 13:27:10;;;;;;;48.08;18.90;;;19.70;43.10;;;;;;6210529;28;20018;-66
2022/04/11 13:30:11;;;;;;;44.40;17.58;;;19.70;43.30;;;;;;6210101;28;20054;-66
2022/04/11 13:33:11;;;;;;;54.38;20.77;;;19.70;43.50;;;;;;6196326;28;20030;-66
2022/04/11 13:36:12;;;;;;;44.58;17.23;;;19.70;43.60;;;;;;6195806;28;20033;-66
2022/04/11 13:39:12;;;;;;;47.38;17.17;;;19.70;43.70;;;;;;6170697;28;20058;-66
2022/04/11 13:42:13;;;;;;;48.47;16.75;;;19.70;43.80;;;;;;6196101;28;20042;-66
2022/04/11 13:45:14;;;;;;;42.45;15.80;;;19.70;44.10;;;;;;6196086;28;20390;-66
2022/04/11 13:48:14;;;;;;;44.60;16.15;;;19.70;43.70;;;;;;6194623;28;20072;-66
2022/04/11 13:51:15;;;;;;;42.22;16.35;;;19.70;43.70;;;;;;6196267;28;20037;-67
2022/04/11 13:54:16;;;;;;;42.15;16.70;;;19.70;43.60;;;;;;6195612;28;20106;-65
2022/04/11 13:57:16;;;;;;;46.08;17.65;;;19.70;43.60;;;;;;6195912;28;20051;-66
2022/04/11 14:00:18;;;;;;;39.78;15.38;;;19.70;43.50;;;;;;6195782;28;20088;-66
2022/04/11 14:03:19;;;;;;;39.22;15.10;;;19.70;43.40;;;;;;6195794;28;20374;-66
2022/04/11 14:06:19;;;;;;;44.33;16.30;;;19.70;43.40;;;;;;6194407;28;20015;-66
2022/04/11 14:09:20;;;;;;;37.95;15.05;;;19.70;43.40;;;;;;6195565;28;20033;-66
2022/04/11 14:12:21;;;;;;;43.63;16.80;;;19.70;43.40;;;;;;6206362;28;20033;-66
2022/04/11 14:15:21;;;;;;;40.60;16.00;;;19.70;43.40;;;;;;6219648;28;20026;-66
2022/04/11 14:18:22;;;;;;;39.80;15.90;;;19.70;43.40;;;;;;6219492;28;20113;-66
2022/04/11 14:21:22;;;;;;;40.75;15.20;;;19.70;43.40;;;;;;6219552;28;20366;-66
2022/04/11 14:24:23;;;;;;;42.63;16.35;;;19.70;43.40;;;;;;6219128;28;20022;-66
2022/04/11 14:27:24;;;;;;;48.17;17.40;;;19.70;43.50;;;;;;6219719;28;20029;-66
2022/04/11 14:30:24;;;;;;;49.70;18.60;;;19.70;43.40;;;;;;6207153;28;20054;-66
2022/04/11 14:33:25;;;;;;;45.97;18.80;;;19.70;43.50;;;;;;6195341;28;20042;-66
2022/04/11 14:36:25;;;;;;;54.88;19.77;;;19.70;43.50;;;;;;6194852;28;20118;-67
2022/04/11 14:39:29;;;;;;;49.33;18.85;;;19.80;43.70;;;;;;6194650;28;20045;-66
2022/04/11 14:42:29;;;;;;;47.80;19.13;;;19.80;43.80;;;;;;6194734;28;20057;-66
2022/04/11 14:45:30;;;;;;;62.10;20.90;;;19.80;43.80;;;;;;6193291;28;20113;-66
2022/04/11 14:48:31;;;;;;;62.13;21.55;;;19.80;43.70;;;;;;6195261;28;20264;-66
2022/04/11 14:51:32;;;;;;;54.50;20.38;;;19.80;43.70;;;;;;6195460;28;20022;-66
2022/04/11 14:54:33;;;;;;;61.20;22.75;;;19.80;43.70;;;;;;6194582;28;20101;-67
2022/04/11 14:57:34;;;;;;;60.08;23.13;;;19.80;43.70;;;;;;6195006;28;20030;-67
2022/04/11 15:00:35;;;;;;;63.55;23.83;;;19.80;43.70;;;;;;6198863;28;20379;-67
2022/04/11 15:03:36;;;;;;;65.78;24.90;;;19.80;43.70;;;;;;6199586;28;20405;-66
2022/04/11 15:06:36;;;;;;;64.15;24.35;;;19.80;43.70;;;;;;6199647;28;20033;-66
2022/04/11 15:09:37;;;;;;;67.90;24.67;;;19.80;43.70;;;;;;6198455;28;20026;-67
2022/04/11 15:12:38;;;;;;;70.60;26.48;;;19.80;43.70;;;;;;6212729;28;20500;-66
2022/04/11 15:15:38;;;;;;;71.47;26.83;;;19.80;43.80;;;;;;6223325;28;20058;-66
2022/04/11 15:18:39;;;;;;;72.45;26.17;;;19.80;43.80;;;;;;6223614;28;20038;-66
2022/04/11 15:21:39;;;;;;;70.40;26.45;;;19.80;44.50;;;;;;6201751;28;20038;-66
2022/04/11 15:24:40;;;;;;;79.78;30.13;;;19.80;43.80;;;;;;6198295;28;20026;-66
2022/04/11 15:27:41;;;;;;;73.68;27.50;;;19.80;43.90;;;;;;6199363;28;20081;-66
2022/04/11 15:30:41;;;;;;;76.82;28.58;;;19.80;43.90;;;;;;6198597;28;20054;-66
2022/04/11 15:33:42;;;;;;;73.82;28.17;;;19.80;43.90;;;;;;6198669;28;20735;-66
2022/04/11 15:36:43;;;;;;;72.50;27.88;;;19.80;44.00;;;;;;6198807;28;20054;-67
2022/04/11 15:39:43;;;;;;;67.35;26.50;;;19.80;44.00;;;;;;6198312;28;20031;-66
2022/04/11 15:42:44;;;;;;;69.88;27.38;;;19.80;44.00;;;;;;6198947;28;20465;-66
2022/04/11 15:45:45;;;;;;;82.35;28.80;;;19.80;43.90;;;;;;6199125;28;20034;-66
2022/04/11 15:48:45;;;;;;;82.10;29.52;;;19.80;43.90;;;;;;6198912;28;20032;-66